Time;durP1;ratioP1;P1;durP2;ratioP2;P2;SDS_P1;SDS_P2;PMS_P1;PMS_P2;Temp;Humidity;BMP_temperature;BMP_pressure;BME280_temperature;BME280_humidity;BME280_pressure;Samples;Min_cycle;Max_cycle;Signal;HPM_P1;HPM_P2
2021/01/23 00:02:16;;;;;;;21.97;18.53;;;2.80;99.90;;;;;;5061478;28;20251;-66
2021/01/23 00:04:42;;;;;;;19.77;17.77;;;2.80;99.90;;;;;;5054703;28;20176;-66
2021/01/23 00:07:08;;;;;;;25.00;20.00;;;2.80;99.90;;;;;;5053384;28;20252;-66
2021/01/23 00:09:34;;;;;;;22.40;19.23;;;2.80;99.90;;;;;;5052749;28;20177;-66
2021/01/23 00:11:59;;;;;;;22.23;19.60;;;2.80;99.90;;;;;;5059692;28;20481;-66
2021/01/23 00:14:25;;;;;;;27.77;20.17;;;2.80;99.90;;;;;;5056358;28;20186;-66
2021/01/23 00:16:51;;;;;;;21.10;18.87;;;2.80;99.90;;;;;;5055250;28;20181;-66
2021/01/23 00:19:16;;;;;;;22.77;20.27;;;2.80;99.90;;;;;;5062149;28;20458;-66
2021/01/23 00:21:42;;;;;;;23.90;20.57;;;2.80;99.90;;;;;;5059882;28;20180;-66
2021/01/23 00:24:07;;;;;;;23.47;20.73;;;2.80;99.90;;;;;;5054089;28;20681;-66
2021/01/23 00:26:33;;;;;;;30.50;20.93;;;2.80;99.90;;;;;;5056342;28;20211;-66
2021/01/23 00:28:59;;;;;;;23.83;20.23;;;2.80;99.90;;;;;;5053774;28;20262;-66
2021/01/23 00:31:24;;;;;;;24.77;20.60;;;2.80;99.90;;;;;;5052831;28;20165;-66
2021/01/23 00:33:50;;;;;;;25.50;21.10;;;2.80;99.90;;;;;;5058200;28;20215;-66
2021/01/23 00:36:15;;;;;;;28.80;22.43;;;2.80;99.90;;;;;;5059176;28;20204;-66
2021/01/23 00:38:43;;;;;;;22.57;20.13;;;2.80;99.90;;;;;;5062328;28;20200;-66
2021/01/23 00:41:09;;;;;;;24.47;20.33;;;2.70;99.90;;;;;;5056908;28;20652;-66
2021/01/23 00:43:34;;;;;;;23.63;20.73;;;2.80;99.90;;;;;;5055343;28;20472;-66
2021/01/23 00:46:00;;;;;;;26.23;21.10;;;2.70;99.90;;;;;;5054605;28;20429;-66
2021/01/23 00:48:25;;;;;;;23.77;21.40;;;2.70;99.90;;;;;;5059972;28;20180;-66
2021/01/23 00:50:51;;;;;;;22.93;20.50;;;2.70;99.90;;;;;;5051732;28;20188;-66
2021/01/23 00:53:16;;;;;;;26.23;20.37;;;2.60;99.90;;;;;;5054860;28;20721;-66
2021/01/23 00:55:42;;;;;;;27.57;19.67;;;2.60;99.90;;;;;;5054233;28;20214;-66
2021/01/23 00:58:08;;;;;;;23.97;19.07;;;2.60;99.90;;;;;;5058608;28;20187;-66
2021/01/23 01:00:33;;;;;;;24.17;18.90;;;2.60;99.90;;;;;;5054558;28;20584;-66
2021/01/23 01:02:59;;;;;;;21.00;18.80;;;2.60;99.90;;;;;;5052451;28;20176;-66
2021/01/23 01:05:24;;;;;;;23.10;18.60;;;2.60;99.90;;;;;;5056391;28;20191;-66
2021/01/23 01:07:50;;;;;;;21.10;18.60;;;2.60;99.90;;;;;;5059182;28;20172;-66
2021/01/23 01:10:15;;;;;;;21.93;18.50;;;2.50;99.90;;;;;;5058280;28;20183;-66
2021/01/23 01:12:41;;;;;;;25.60;19.67;;;2.50;99.90;;;;;;5064767;28;20264;-66
2021/01/23 01:15:07;;;;;;;19.13;17.07;;;2.60;99.90;;;;;;5052806;28;20226;-66
2021/01/23 01:17:33;;;;;;;21.87;19.10;;;2.60;99.90;;;;;;5054403;28;20657;-65
2021/01/23 01:19:59;;;;;;;19.80;17.60;;;2.50;99.90;;;;;;5054157;28;20512;-66
2021/01/23 01:22:24;;;;;;;19.90;17.43;;;2.50;99.90;;;;;;5058665;28;20176;-66
2021/01/23 01:24:49;;;;;;;25.63;19.67;;;2.50;99.90;;;;;;5057490;28;20437;-66
2021/01/23 01:27:15;;;;;;;20.90;18.23;;;2.50;99.90;;;;;;5057766;28;20683;-66
2021/01/23 01:29:41;;;;;;;23.37;17.47;;;2.50;99.90;;;;;;5057594;28;20199;-66
2021/01/23 01:32:06;;;;;;;22.63;20.07;;;2.50;99.90;;;;;;5064404;28;20227;-66
2021/01/23 01:34:32;;;;;;;23.30;18.70;;;2.50;99.90;;;;;;5060371;28;20243;-66
2021/01/23 01:36:58;;;;;;;22.83;18.97;;;2.50;99.90;;;;;;5061691;28;20183;-66
2021/01/23 01:39:24;;;;;;;22.33;17.80;;;2.50;99.90;;;;;;5059373;28;20215;-66
2021/01/23 01:41:49;;;;;;;26.83;21.27;;;2.50;99.90;;;;;;5058726;28;20434;-66
2021/01/23 01:44:15;;;;;;;45.70;26.87;;;2.50;99.90;;;;;;5066026;28;20679;-66
2021/01/23 01:46:41;;;;;;;32.73;23.50;;;2.50;99.90;;;;;;5057683;28;20668;-66
2021/01/23 01:49:07;;;;;;;31.50;26.07;;;2.50;99.90;;;;;;5058370;28;20190;-66
2021/01/23 01:51:34;;;;;;;34.70;24.37;;;2.50;99.90;;;;;;5063887;28;20512;-66
2021/01/23 01:54:00;;;;;;;37.23;26.13;;;2.50;99.90;;;;;;5060774;28;20512;-66
2021/01/23 01:56:26;;;;;;;34.23;25.20;;;2.50;99.90;;;;;;5054921;28;20972;-66
2021/01/23 01:58:51;;;;;;;34.87;25.87;;;2.50;99.90;;;;;;5057660;28;20466;-65
2021/01/23 02:01:17;;;;;;;30.30;23.13;;;2.50;99.90;;;;;;5054696;28;23070;-66
2021/01/23 02:04:07;;;;;;;32.27;23.47;;;2.60;99.90;;;;;;5056987;28;20180;-66
2021/01/23 02:06:45;;;;;;;29.77;22.27;;;2.50;99.90;;;;;;5063700;28;20432;-66
2021/01/23 02:09:53;;;;;;;30.00;23.30;;;2.60;99.90;;;;;;5064066;28;20445;-66
2021/01/23 02:12:37;;;;;;;36.13;23.47;;;2.60;99.90;;;;;;5056368;28;20781;-66
2021/01/23 02:15:10;;;;;;;29.90;20.43;;;2.60;99.90;;;;;;5056384;28;20430;-66
2021/01/23 02:17:43;;;;;;;27.07;20.20;;;2.70;99.90;;;;;;5064400;28;20440;-66
2021/01/23 02:20:53;;;;;;;26.90;20.73;;;2.70;99.90;;;;;;5056403;28;20591;-66
2021/01/23 02:23:26;;;;;;;28.37;22.30;;;2.70;99.90;;;;;;5020060;28;20436;-66
2021/01/23 02:26:10;;;;;;;33.37;22.57;;;2.70;99.90;;;;;;5047951;28;20458;-66
2021/01/23 02:28:54;;;;;;;27.37;20.13;;;2.80;99.90;;;;;;5055815;28;20927;-66
2021/01/23 02:31:22;;;;;;;24.20;19.17;;;2.80;99.90;;;;;;5058767;28;20942;-66
2021/01/23 02:33:53;;;;;;;20.90;17.57;;;2.80;99.90;;;;;;5063105;28;20620;-66
2021/01/23 02:36:21;;;;;;;21.10;17.30;;;2.80;99.90;;;;;;5055965;28;20553;-66
2021/01/23 02:38:48;;;;;;;19.47;17.30;;;2.80;99.90;;;;;;5054574;28;20461;-66
2021/01/23 02:41:16;;;;;;;22.60;17.33;;;2.80;99.90;;;;;;5062018;28;20461;-65
2021/01/23 02:43:43;;;;;;;22.83;17.63;;;2.80;99.90;;;;;;5056025;28;20496;-66
2021/01/23 02:46:10;;;;;;;18.40;16.03;;;2.80;99.90;;;;;;5059440;28;20434;-66
2021/01/23 02:48:37;;;;;;;19.37;16.60;;;2.80;99.90;;;;;;5063386;28;20453;-66
2021/01/23 02:51:05;;;;;;;20.03;15.90;;;2.80;99.90;;;;;;5055888;28;21054;-66
2021/01/23 02:53:34;;;;;;;19.57;16.83;;;2.90;99.90;;;;;;5054525;28;20446;-66
2021/01/23 02:56:08;;;;;;;20.87;14.80;;;2.90;99.90;;;;;;5054800;28;20435;-66
2021/01/23 02:58:35;;;;;;;19.23;17.17;;;2.90;99.90;;;;;;5061631;28;20527;-66
2021/01/23 03:01:04;;;;;;;21.27;17.10;;;2.90;99.90;;;;;;5054912;28;20458;-66
2021/01/23 03:03:32;;;;;;;18.80;16.07;;;2.90;99.90;;;;;;5055739;28;20427;-66
2021/01/23 03:06:04;;;;;;;18.00;14.70;;;2.80;99.90;;;;;;5057122;28;20483;-65
2021/01/23 03:08:30;;;;;;;21.00;16.60;;;2.90;99.90;;;;;;5053108;28;20438;-66
2021/01/23 03:10:55;;;;;;;17.60;15.80;;;2.90;99.90;;;;;;5054783;28;20916;-66
2021/01/23 03:13:21;;;;;;;25.00;17.00;;;2.90;99.90;;;;;;5054799;28;20438;-66
2021/01/23 03:15:46;;;;;;;16.87;13.43;;;2.90;99.90;;;;;;5057043;28;20188;-66
2021/01/23 03:18:12;;;;;;;13.07;11.67;;;2.90;99.90;;;;;;5057088;28;20641;-66
2021/01/23 03:20:37;;;;;;;16.70;10.83;;;2.90;99.90;;;;;;5056700;28;20731;-66
2021/01/23 03:23:03;;;;;;;17.50;11.20;;;2.90;99.90;;;;;;5053370;28;20324;-66
2021/01/23 03:25:29;;;;;;;12.47;10.97;;;2.90;99.90;;;;;;5053799;28;20180;-66
2021/01/23 03:27:56;;;;;;;13.47;10.53;;;2.90;99.90;;;;;;5056933;28;20242;-66
2021/01/23 03:30:22;;;;;;;14.83;10.10;;;2.90;99.90;;;;;;5054823;28;20438;-66
2021/01/23 03:32:49;;;;;;;11.80;10.00;;;2.90;99.90;;;;;;5054573;28;20478;-66
2021/01/23 03:35:18;;;;;;;12.90;9.77;;;2.90;99.90;;;;;;5055488;28;20533;-66
2021/01/23 03:37:44;;;;;;;12.10;10.83;;;2.90;99.90;;;;;;5063022;28;20433;-66
2021/01/23 03:40:10;;;;;;;13.70;9.63;;;2.90;99.90;;;;;;5056557;28;20472;-67
2021/01/23 03:42:36;;;;;;;14.40;10.30;;;2.90;99.90;;;;;;5055855;28;20199;-65
2021/01/23 03:45:04;;;;;;;13.70;11.10;;;2.90;99.90;;;;;;5053930;28;20425;-65
2021/01/23 03:47:29;;;;;;;11.10;9.90;;;3.00;99.90;;;;;;5057882;28;20512;-65
2021/01/23 03:49:55;;;;;;;10.83;9.73;;;3.00;99.90;;;;;;5055757;28;20433;-65
2021/01/23 03:52:20;;;;;;;11.90;10.00;;;3.00;99.90;;;;;;5059610;28;20203;-65
2021/01/23 03:54:46;;;;;;;12.57;10.30;;;3.00;99.90;;;;;;5056457;28;20187;-65
2021/01/23 03:57:12;;;;;;;12.97;9.57;;;3.00;99.90;;;;;;5056188;28;20184;-65
2021/01/23 03:59:38;;;;;;;14.90;10.27;;;3.00;99.90;;;;;;5055162;28;20192;-65
2021/01/23 04:02:04;;;;;;;10.80;9.70;;;3.00;99.90;;;;;;5056291;28;20431;-65
2021/01/23 04:04:30;;;;;;;11.67;9.70;;;3.00;99.90;;;;;;5055363;28;20479;-65
2021/01/23 04:06:56;;;;;;;11.13;10.00;;;3.00;99.90;;;;;;5052935;28;20430;-65
2021/01/23 04:09:22;;;;;;;12.00;9.13;;;3.00;99.90;;;;;;5053668;28;20234;-65
2021/01/23 04:11:48;;;;;;;10.17;9.00;;;3.00;99.90;;;;;;5065159;28;20429;-65
2021/01/23 04:14:13;;;;;;;10.73;9.57;;;3.00;99.90;;;;;;5057205;28;20203;-65
2021/01/23 04:16:39;;;;;;;10.30;8.60;;;3.00;99.90;;;;;;5055261;28;20437;-65
2021/01/23 04:19:05;;;;;;;14.60;9.77;;;3.00;99.90;;;;;;5058481;28;20252;-65
2021/01/23 04:21:31;;;;;;;11.27;9.17;;;3.00;99.90;;;;;;5057033;28;20169;-65
2021/01/23 04:23:56;;;;;;;12.50;9.87;;;3.00;99.90;;;;;;5054881;28;20423;-65
2021/01/23 04:26:22;;;;;;;10.63;9.40;;;3.00;99.90;;;;;;5050774;28;21386;-65
2021/01/23 04:28:48;;;;;;;9.80;8.00;;;3.00;99.90;;;;;;5052960;28;20660;-65
2021/01/23 04:31:13;;;;;;;15.00;9.17;;;2.90;99.90;;;;;;5061053;28;20211;-65
2021/01/23 04:33:39;;;;;;;10.77;9.10;;;2.90;99.90;;;;;;5052842;28;20248;-65
2021/01/23 04:36:05;;;;;;;16.33;10.00;;;2.90;99.90;;;;;;5058766;28;20184;-65
2021/01/23 04:38:31;;;;;;;10.67;8.50;;;2.90;99.90;;;;;;5055056;28;20614;-65
2021/01/23 04:40:58;;;;;;;9.80;8.90;;;2.90;99.90;;;;;;5050189;28;20545;-65
2021/01/23 04:43:24;;;;;;;11.03;7.50;;;3.00;99.90;;;;;;5058375;28;20436;-65
2021/01/23 04:45:49;;;;;;;12.60;8.90;;;2.90;99.90;;;;;;5061214;28;20426;-65
2021/01/23 04:48:19;;;;;;;9.57;7.90;;;2.90;99.90;;;;;;5060724;28;20441;-65
2021/01/23 04:50:45;;;;;;;8.60;7.73;;;2.90;99.90;;;;;;5053450;28;20650;-65
2021/01/23 04:53:11;;;;;;;14.80;8.27;;;2.90;99.90;;;;;;5054344;28;20427;-65
2021/01/23 04:55:37;;;;;;;11.40;8.50;;;2.90;99.90;;;;;;5052977;28;20441;-65
2021/01/23 04:58:03;;;;;;;12.43;8.03;;;2.90;99.90;;;;;;5058190;28;20434;-65
2021/01/23 05:00:28;;;;;;;9.40;8.40;;;2.90;99.90;;;;;;5053821;28;20198;-65
2021/01/23 05:03:05;;;;;;;13.70;8.63;;;2.90;99.90;;;;;;5051825;28;20207;-65
2021/01/23 05:05:31;;;;;;;11.27;9.40;;;2.90;99.90;;;;;;5057143;28;20168;-65
2021/01/23 05:08:10;;;;;;;10.63;8.47;;;2.90;99.90;;;;;;5053373;28;20423;-65
2021/01/23 05:10:37;;;;;;;10.83;8.83;;;2.90;99.90;;;;;;5057577;28;20487;-65
2021/01/23 05:13:15;;;;;;;12.13;8.50;;;2.90;99.90;;;;;;5059287;28;20977;-65
2021/01/23 05:15:43;;;;;;;9.77;8.77;;;2.90;99.90;;;;;;5061255;28;20425;-65
2021/01/23 05:18:09;;;;;;;9.23;7.90;;;3.00;99.90;;;;;;5057818;28;20880;-65
2021/01/23 05:20:41;;;;;;;10.77;8.00;;;3.00;99.90;;;;;;5055397;28;20550;-65
2021/01/23 05:23:10;;;;;;;9.17;8.27;;;3.00;99.90;;;;;;5061471;28;20496;-65
2021/01/23 05:25:37;;;;;;;9.70;8.17;;;3.00;99.90;;;;;;5051695;28;20434;-65
2021/01/23 05:28:04;;;;;;;9.53;7.93;;;3.00;99.90;;;;;;5057813;28;20423;-65
2021/01/23 05:30:45;;;;;;;11.53;10.23;;;3.10;99.90;;;;;;5061756;28;20513;-65
2021/01/23 05:33:12;;;;;;;9.23;7.30;;;3.10;99.90;;;;;;5062700;28;20556;-65
2021/01/23 05:35:38;;;;;;;8.03;7.33;;;3.20;99.90;;;;;;5062664;28;20437;-65
2021/01/23 05:38:28;;;;;;;7.87;7.10;;;3.20;99.90;;;;;;5067143;28;20438;-65
2021/01/23 05:41:09;;;;;;;8.50;7.57;;;3.20;99.90;;;;;;5055368;28;20902;-65
2021/01/23 05:43:39;;;;;;;10.10;8.63;;;3.30;99.90;;;;;;5060926;28;20437;-65
2021/01/23 05:46:07;;;;;;;9.30;7.50;;;3.30;99.90;;;;;;5054503;28;20439;-65
2021/01/23 05:48:34;;;;;;;8.93;8.03;;;3.40;99.90;;;;;;5055018;28;20425;-65
2021/01/23 05:51:00;;;;;;;7.63;6.83;;;3.40;99.90;;;;;;5066299;28;20441;-65
2021/01/23 05:53:25;;;;;;;9.23;8.20;;;3.40;99.90;;;;;;5053771;28;20457;-65
2021/01/23 05:55:51;;;;;;;8.10;7.40;;;3.50;99.90;;;;;;5053428;28;20433;-65
2021/01/23 05:58:17;;;;;;;11.50;7.93;;;3.50;99.90;;;;;;5056700;28;20657;-65
2021/01/23 06:00:43;;;;;;;8.40;7.50;;;3.50;99.90;;;;;;5057179;28;20678;-65
2021/01/23 06:03:11;;;;;;;12.60;8.00;;;3.50;99.90;;;;;;5056718;28;20523;-65
2021/01/23 06:05:37;;;;;;;10.63;8.40;;;3.50;99.90;;;;;;5055658;28;20423;-65
2021/01/23 06:08:03;;;;;;;9.93;8.90;;;3.60;99.90;;;;;;5056145;28;20434;-65
2021/01/23 06:10:34;;;;;;;8.93;8.00;;;3.60;99.90;;;;;;5059614;28;20434;-65
2021/01/23 06:13:00;;;;;;;10.60;7.90;;;3.60;99.90;;;;;;5056796;28;20180;-65
2021/01/23 06:15:32;;;;;;;9.50;7.30;;;3.60;99.90;;;;;;5055846;28;20443;-65
2021/01/23 06:18:20;;;;;;;9.67;8.03;;;3.50;99.90;;;;;;5060603;28;20628;-65
2021/01/23 06:20:48;;;;;;;9.80;7.67;;;3.60;99.90;;;;;;5058288;28;20552;-64
2021/01/23 06:23:16;;;;;;;13.23;7.90;;;3.50;99.90;;;;;;5056324;28;20795;-65
2021/01/23 06:25:51;;;;;;;17.73;9.37;;;3.50;99.90;;;;;;5057073;28;20434;-64
2021/01/23 06:28:17;;;;;;;11.93;8.20;;;3.60;99.90;;;;;;5057735;28;20486;-64
2021/01/23 06:30:42;;;;;;;10.50;9.43;;;3.50;99.90;;;;;;5054503;28;20872;-65
2021/01/23 06:33:23;;;;;;;10.20;7.87;;;3.50;99.90;;;;;;5060563;28;20565;-64
2021/01/23 06:36:08;;;;;;;10.80;9.67;;;3.50;99.90;;;;;;5075487;28;20568;-65
2021/01/23 06:38:34;;;;;;;12.70;8.80;;;3.50;99.90;;;;;;5056092;28;20552;-65
2021/01/23 06:41:24;;;;;;;9.40;8.40;;;3.40;99.90;;;;;;5062860;28;21015;-65
2021/01/23 06:44:13;;;;;;;8.63;7.70;;;3.40;99.90;;;;;;5056067;28;20891;-65
2021/01/23 06:46:44;;;;;;;12.30;9.47;;;3.30;99.90;;;;;;5057921;28;20509;-65
2021/01/23 06:49:11;;;;;;;10.03;8.50;;;3.30;99.90;;;;;;5057088;28;20437;-65
2021/01/23 06:51:38;;;;;;;11.63;8.80;;;3.40;99.90;;;;;;5065415;28;20445;-64
2021/01/23 06:54:18;;;;;;;11.77;8.63;;;3.40;99.90;;;;;;5056420;28;20457;-64
2021/01/23 06:56:44;;;;;;;11.90;7.60;;;3.40;99.90;;;;;;5054480;28;20930;-64
2021/01/23 06:59:33;;;;;;;10.47;8.70;;;3.40;99.90;;;;;;5055571;28;20592;-64
2021/01/23 07:02:09;;;;;;;10.23;9.23;;;3.50;99.90;;;;;;5055804;28;20917;-65
2021/01/23 07:04:46;;;;;;;9.30;8.30;;;3.50;99.90;;;;;;5061917;28;20453;-65
2021/01/23 07:07:13;;;;;;;11.63;7.60;;;3.50;99.90;;;;;;5059472;28;20506;-65
2021/01/23 07:09:56;;;;;;;11.80;8.97;;;3.50;99.90;;;;;;5054444;28;20437;-65
2021/01/23 07:12:42;;;;;;;9.67;8.77;;;3.50;99.90;;;;;;5055552;28;20472;-65
2021/01/23 07:15:09;;;;;;;10.40;9.03;;;3.60;99.90;;;;;;5054288;28;20423;-65
2021/01/23 07:17:40;;;;;;;15.70;9.23;;;3.60;99.90;;;;;;5061091;28;20426;-65
2021/01/23 07:20:08;;;;;;;10.17;8.53;;;3.60;99.90;;;;;;5054240;28;20509;-65
2021/01/23 07:22:34;;;;;;;12.43;7.70;;;3.60;99.90;;;;;;5058213;28;20422;-65
2021/01/23 07:25:01;;;;;;;10.80;9.20;;;3.60;99.90;;;;;;5055082;28;20446;-65
2021/01/23 07:27:27;;;;;;;8.90;7.37;;;3.70;99.90;;;;;;5059143;28;20467;-65
2021/01/23 07:29:52;;;;;;;9.20;7.00;;;3.70;99.90;;;;;;5058400;28;20837;-65
2021/01/23 07:32:18;;;;;;;8.57;7.67;;;3.70;99.90;;;;;;5060109;28;20277;-65
2021/01/23 07:34:58;;;;;;;8.97;7.60;;;3.70;99.90;;;;;;5054279;28;20188;-65
2021/01/23 07:37:44;;;;;;;11.10;7.37;;;3.70;99.90;;;;;;5054066;28;20557;-65
2021/01/23 07:40:13;;;;;;;13.03;8.70;;;3.70;99.90;;;;;;5059512;28;20485;-65
2021/01/23 07:42:40;;;;;;;9.13;7.30;;;3.80;99.90;;;;;;5057789;28;20451;-65
2021/01/23 07:45:08;;;;;;;9.47;7.83;;;3.80;99.90;;;;;;5058001;28;20435;-65
2021/01/23 07:47:35;;;;;;;9.20;7.60;;;3.80;99.90;;;;;;5056105;28;20573;-65
2021/01/23 07:50:12;;;;;;;8.63;7.70;;;3.90;99.90;;;;;;5053555;28;20494;-65
2021/01/23 07:52:40;;;;;;;10.50;8.17;;;3.90;99.90;;;;;;5058240;28;20438;-64
2021/01/23 07:55:07;;;;;;;9.07;7.90;;;3.90;99.90;;;;;;5059030;28;20468;-64
2021/01/23 07:57:33;;;;;;;9.23;7.00;;;4.00;99.90;;;;;;5053021;28;20793;-65
2021/01/23 07:59:59;;;;;;;8.40;7.40;;;4.00;99.90;;;;;;5071118;28;20921;-65
2021/01/23 08:02:25;;;;;;;8.60;7.70;;;4.00;99.90;;;;;;5054703;28;21118;-64
2021/01/23 08:04:52;;;;;;;8.90;7.70;;;4.10;99.90;;;;;;5055060;28;21440;-65
2021/01/23 08:07:26;;;;;;;8.17;6.67;;;4.10;99.90;;;;;;5055383;28;20965;-65
2021/01/23 08:10:08;;;;;;;8.60;7.13;;;4.10;99.90;;;;;;5064703;28;20429;-65
2021/01/23 08:12:35;;;;;;;8.40;7.60;;;4.20;99.90;;;;;;5056266;28;20939;-65
2021/01/23 08:15:02;;;;;;;7.80;7.10;;;4.20;99.90;;;;;;5053392;28;20591;-65
2021/01/23 08:17:38;;;;;;;8.87;8.00;;;4.20;99.90;;;;;;5055901;28;20445;-65
2021/01/23 08:20:06;;;;;;;9.63;7.70;;;4.20;99.90;;;;;;5054162;28;20970;-65
2021/01/23 08:22:32;;;;;;;12.10;8.57;;;4.20;99.90;;;;;;5056094;28;20433;-65
2021/01/23 08:24:57;;;;;;;8.90;7.00;;;4.20;99.90;;;;;;5060181;28;20431;-65
2021/01/23 08:27:23;;;;;;;10.57;7.20;;;4.30;99.90;;;;;;5056462;28;20203;-65
2021/01/23 08:29:52;;;;;;;8.97;8.00;;;4.30;99.90;;;;;;5066888;28;20184;-65
2021/01/23 08:32:18;;;;;;;7.73;6.93;;;4.40;99.90;;;;;;5058462;28;20220;-65
2021/01/23 08:34:45;;;;;;;8.10;7.40;;;4.40;99.90;;;;;;5054532;28;20522;-65
2021/01/23 08:37:12;;;;;;;10.80;8.77;;;4.50;99.90;;;;;;5054447;28;20442;-65
2021/01/23 08:39:42;;;;;;;9.70;7.03;;;4.60;99.90;;;;;;5056888;28;20484;-65
2021/01/23 08:42:08;;;;;;;9.87;6.50;;;4.70;99.90;;;;;;5053663;28;20510;-65
2021/01/23 08:44:33;;;;;;;7.57;6.77;;;4.70;99.90;;;;;;5054442;28;20457;-65
2021/01/23 08:46:59;;;;;;;10.30;6.97;;;4.70;99.90;;;;;;5052298;28;20427;-65
2021/01/23 08:49:24;;;;;;;12.00;7.30;;;4.80;99.90;;;;;;5058884;28;20188;-65
2021/01/23 08:51:51;;;;;;;7.70;6.50;;;4.90;99.90;;;;;;5053248;28;20176;-65
2021/01/23 08:54:16;;;;;;;10.57;7.30;;;5.00;99.90;;;;;;5053485;28;20172;-65
2021/01/23 08:56:42;;;;;;;9.40;7.60;;;5.00;99.90;;;;;;5057900;28;20461;-65
2021/01/23 08:59:07;;;;;;;7.67;6.93;;;5.00;99.90;;;;;;5054402;28;20192;-65
2021/01/23 09:01:33;;;;;;;7.60;6.70;;;5.00;99.90;;;;;;5059720;28;20184;-65
2021/01/23 09:03:58;;;;;;;8.67;7.30;;;5.00;99.90;;;;;;5057864;28;20183;-64
2021/01/23 09:06:24;;;;;;;7.20;6.47;;;5.10;99.90;;;;;;5053397;28;20273;-65
2021/01/23 09:08:49;;;;;;;8.00;7.20;;;5.10;99.90;;;;;;5057540;28;20211;-65
2021/01/23 09:11:15;;;;;;;9.80;8.37;;;5.20;99.90;;;;;;5064543;28;20188;-65
2021/01/23 09:13:40;;;;;;;12.57;7.70;;;5.30;99.90;;;;;;5059804;28;20993;-65
2021/01/23 09:16:06;;;;;;;8.07;7.23;;;5.40;99.90;;;;;;5055893;28;20180;-65
2021/01/23 09:18:32;;;;;;;7.93;7.13;;;5.40;99.90;;;;;;5058390;28;20521;-65
2021/01/23 09:20:58;;;;;;;7.50;6.80;;;5.40;99.90;;;;;;5054470;28;20203;-65
2021/01/23 09:23:24;;;;;;;9.37;7.83;;;5.50;99.90;;;;;;5068004;28;20485;-65
2021/01/23 09:25:49;;;;;;;9.17;8.03;;;5.50;99.90;;;;;;5052160;28;20461;-65
2021/01/23 09:28:15;;;;;;;10.13;9.07;;;5.60;99.90;;;;;;5056117;28;20953;-65
2021/01/23 09:30:40;;;;;;;9.87;7.40;;;5.60;99.90;;;;;;5052168;28;20283;-65
2021/01/23 09:33:06;;;;;;;8.67;7.77;;;5.60;99.90;;;;;;5054218;28;20222;-65
2021/01/23 09:35:31;;;;;;;9.90;8.67;;;5.60;99.90;;;;;;5053052;28;20177;-65
2021/01/23 09:37:57;;;;;;;9.80;8.17;;;5.60;99.90;;;;;;5057174;28;20180;-65
2021/01/23 09:40:22;;;;;;;9.70;8.10;;;5.60;99.90;;;;;;5054905;28;20204;-65
2021/01/23 09:42:48;;;;;;;7.33;6.53;;;5.70;99.90;;;;;;5062863;28;20320;-65
2021/01/23 09:45:14;;;;;;;7.93;6.80;;;5.80;99.90;;;;;;5062109;28;20176;-65
2021/01/23 09:47:39;;;;;;;7.83;7.03;;;5.80;99.90;;;;;;5063485;28;20645;-64
2021/01/23 09:50:06;;;;;;;7.33;6.50;;;5.80;99.90;;;;;;5059278;28;20263;-65
2021/01/23 09:52:31;;;;;;;10.00;7.63;;;5.80;99.90;;;;;;5056089;28;20176;-65
2021/01/23 09:54:57;;;;;;;9.37;7.53;;;5.80;99.90;;;;;;5064421;28;20994;-65
2021/01/23 09:57:22;;;;;;;8.13;6.77;;;5.80;99.90;;;;;;5061540;28;20187;-65
2021/01/23 09:59:48;;;;;;;8.23;7.40;;;5.90;99.90;;;;;;5057554;28;20200;-65
2021/01/23 10:02:14;;;;;;;8.80;7.73;;;6.00;99.90;;;;;;5060873;28;21871;-65
2021/01/23 10:04:39;;;;;;;8.33;7.37;;;6.10;99.90;;;;;;5060030;28;20187;-65
2021/01/23 10:07:05;;;;;;;9.37;8.03;;;6.10;99.90;;;;;;5056345;28;20214;-65
2021/01/23 10:09:31;;;;;;;7.80;6.73;;;6.20;99.90;;;;;;5057531;28;20181;-65
2021/01/23 10:11:57;;;;;;;7.80;6.83;;;6.30;99.90;;;;;;5058398;28;20176;-65
2021/01/23 10:14:23;;;;;;;8.33;7.53;;;6.30;99.90;;;;;;5056532;28;20776;-65
2021/01/23 10:16:49;;;;;;;8.17;7.47;;;6.30;99.90;;;;;;5055842;28;20507;-65
2021/01/23 10:19:14;;;;;;;10.20;7.33;;;6.40;99.90;;;;;;5058477;28;20183;-65
2021/01/23 10:21:40;;;;;;;6.80;6.20;;;6.50;99.90;;;;;;5055709;28;20431;-65
2021/01/23 10:24:06;;;;;;;7.50;6.80;;;6.50;99.90;;;;;;5057440;28;20176;-65
2021/01/23 10:26:32;;;;;;;9.87;6.60;;;6.50;99.90;;;;;;5054830;28;20530;-65
2021/01/23 10:28:58;;;;;;;8.00;6.70;;;6.60;99.90;;;;;;5057500;28;20882;-65
2021/01/23 10:31:24;;;;;;;7.53;6.30;;;6.70;99.90;;;;;;5066347;28;20790;-65
2021/01/23 10:33:49;;;;;;;7.57;6.83;;;6.80;99.90;;;;;;5056137;28;20471;-65
2021/01/23 10:36:15;;;;;;;6.90;6.20;;;6.80;99.90;;;;;;5059777;28;20498;-65
2021/01/23 10:38:40;;;;;;;7.97;7.20;;;6.90;99.90;;;;;;5055505;28;20199;-65
2021/01/23 10:41:06;;;;;;;8.13;6.40;;;6.90;99.90;;;;;;5057202;28;20199;-65
2021/01/23 10:43:32;;;;;;;7.87;6.20;;;7.00;99.90;;;;;;5056504;28;20229;-65
2021/01/23 10:45:58;;;;;;;7.27;6.57;;;6.90;99.90;;;;;;5068210;28;20187;-65
2021/01/23 10:48:23;;;;;;;7.27;6.57;;;7.00;99.90;;;;;;5058643;28;20931;-65
2021/01/23 10:50:49;;;;;;;6.80;6.10;;;7.00;99.90;;;;;;5054492;28;20192;-65
2021/01/23 10:53:15;;;;;;;6.70;5.97;;;7.10;99.90;;;;;;5054679;28;20661;-65
2021/01/23 10:55:41;;;;;;;6.60;5.90;;;7.10;99.90;;;;;;5054974;28;20172;-65
2021/01/23 10:58:06;;;;;;;6.60;5.80;;;7.10;99.90;;;;;;5059605;28;20507;-65
2021/01/23 11:00:32;;;;;;;6.20;5.63;;;7.20;99.90;;;;;;5061114;28;20204;-65
2021/01/23 11:02:57;;;;;;;7.83;5.90;;;7.10;99.90;;;;;;5058806;28;20188;-65
2021/01/23 11:05:23;;;;;;;6.90;5.83;;;7.20;99.90;;;;;;5054946;28;20173;-65
2021/01/23 11:07:49;;;;;;;7.90;6.03;;;7.20;99.90;;;;;;5070213;28;20705;-65
2021/01/23 11:10:15;;;;;;;6.77;5.73;;;7.30;99.90;;;;;;5054878;28;20211;-65
2021/01/23 11:12:40;;;;;;;6.40;5.80;;;7.40;99.90;;;;;;5057710;28;20467;-65
2021/01/23 11:15:06;;;;;;;6.37;5.77;;;7.40;99.90;;;;;;5054900;28;20195;-65
2021/01/23 11:17:32;;;;;;;7.60;5.13;;;7.60;99.90;;;;;;5055031;28;20186;-65
2021/01/23 11:19:57;;;;;;;6.40;5.60;;;7.70;99.90;;;;;;5055522;28;20615;-65
2021/01/23 11:22:27;;;;;;;6.40;5.83;;;7.70;99.90;;;;;;5053840;28;20172;-65
2021/01/23 11:24:53;;;;;;;5.40;4.80;;;7.50;99.90;;;;;;5055737;28;20165;-65
2021/01/23 11:27:18;;;;;;;6.10;5.50;;;7.50;99.90;;;;;;5054878;28;20983;-65
2021/01/23 11:29:44;;;;;;;5.20;4.70;;;7.50;99.90;;;;;;5055979;28;20182;-65
2021/01/23 11:32:09;;;;;;;8.53;5.20;;;7.40;99.90;;;;;;5055066;28;20256;-65
2021/01/23 11:34:35;;;;;;;7.27;5.50;;;7.40;99.90;;;;;;5054182;28;20531;-65
2021/01/23 11:37:00;;;;;;;6.90;5.30;;;7.30;99.90;;;;;;5060995;28;20379;-65
2021/01/23 11:39:26;;;;;;;6.70;5.10;;;7.20;99.90;;;;;;5066526;28;20496;-65
2021/01/23 11:41:51;;;;;;;6.87;5.23;;;7.10;99.90;;;;;;5054216;28;20752;-65
2021/01/23 11:44:17;;;;;;;7.17;6.10;;;7.10;99.90;;;;;;5059143;28;20202;-65
2021/01/23 11:46:42;;;;;;;8.63;5.60;;;7.10;99.90;;;;;;5053720;28;20179;-65
2021/01/23 11:49:08;;;;;;;5.37;4.87;;;7.10;99.90;;;;;;5057788;28;20176;-65
2021/01/23 11:51:34;;;;;;;4.70;4.30;;;7.10;99.90;;;;;;5057893;28;20201;-65
2021/01/23 11:53:59;;;;;;;6.07;5.43;;;7.00;99.90;;;;;;5060811;28;20266;-65
2021/01/23 11:56:27;;;;;;;5.83;4.47;;;7.00;99.90;;;;;;5054044;28;20273;-65
2021/01/23 11:58:53;;;;;;;6.80;4.73;;;7.00;99.90;;;;;;5058186;28;20191;-65
2021/01/23 12:01:18;;;;;;;5.60;5.10;;;7.10;99.90;;;;;;5053803;28;20501;-65
2021/01/23 12:03:44;;;;;;;5.40;4.90;;;7.10;99.90;;;;;;5059923;28;20473;-65
2021/01/23 12:06:10;;;;;;;5.87;4.17;;;7.20;99.90;;;;;;5061631;28;20188;-65
2021/01/23 12:08:35;;;;;;;4.90;4.40;;;7.30;99.90;;;;;;5053953;28;20180;-65
2021/01/23 12:11:01;;;;;;;5.87;4.83;;;7.30;99.90;;;;;;5064056;28;20430;-65
2021/01/23 12:13:27;;;;;;;6.53;4.77;;;7.40;99.90;;;;;;5063685;28;20266;-65
2021/01/23 12:15:53;;;;;;;6.13;4.83;;;7.40;99.90;;;;;;5054799;28;20591;-65
2021/01/23 12:18:18;;;;;;;6.73;4.80;;;7.40;99.90;;;;;;5055451;28;20684;-65
2021/01/23 12:20:44;;;;;;;5.40;4.47;;;7.50;99.90;;;;;;5054326;28;20559;-65
2021/01/23 12:23:09;;;;;;;5.70;4.97;;;7.50;99.90;;;;;;5066322;28;20192;-65
2021/01/23 12:25:35;;;;;;;6.33;5.30;;;7.50;99.90;;;;;;5055272;28;20241;-65
2021/01/23 12:28:02;;;;;;;6.40;4.90;;;7.50;99.90;;;;;;5053724;28;20180;-65
2021/01/23 12:30:27;;;;;;;5.60;5.10;;;7.60;99.90;;;;;;5061438;28;20176;-65
2021/01/23 12:32:54;;;;;;;5.10;4.30;;;7.60;99.90;;;;;;5051476;28;20470;-65
2021/01/23 12:35:20;;;;;;;5.10;4.23;;;7.70;99.90;;;;;;5063653;28;20210;-65
2021/01/23 12:37:46;;;;;;;10.23;5.13;;;7.70;99.90;;;;;;5053929;28;20958;-65
2021/01/23 12:40:13;;;;;;;5.20;4.70;;;7.70;99.90;;;;;;5053992;28;20469;-65
2021/01/23 12:42:40;;;;;;;5.40;4.30;;;7.70;99.90;;;;;;5052053;28;20466;-65
2021/01/23 12:45:06;;;;;;;7.90;5.53;;;7.70;99.90;;;;;;5052254;28;20480;-65
2021/01/23 12:47:32;;;;;;;6.03;5.23;;;7.80;99.90;;;;;;5057177;28;20429;-65
2021/01/23 12:49:57;;;;;;;6.23;4.90;;;7.80;99.90;;;;;;5057074;28;20441;-65
2021/01/23 12:52:23;;;;;;;5.03;4.53;;;7.80;99.90;;;;;;5061915;28;20202;-65